Terminal Aerodrome Forecast
Issued by NWS Charleston, WV

Current Version | Previous Version | Graphics & Text | Print | Product List | Glossary On
Versions: 1 2 3 4 5 6 7 8 9 10 11 12 13 14 15 16 17 18 19 20 21 22 23 24 25 26 27
000
FTUS41 KRLX 260540
TAFEKN
TAF
KEKN 260540Z 2606/2706 VRB03KT P6SM SCT050
     FM260800 VRB03KT 6SM BR BKN050
      TEMPO 2608/2611 5SM BR SCT050
     FM261200 00000KT P6SM BKN050
     FM261600 VRB03KT P6SM VCTS BKN050CB
     FM261700 VRB03KT P6SM SHRA VCTS OVC040CB
     FM261900 23004KT P6SM VCTS OVC040CB
     FM270500 VRB03KT P6SM BKN080=

USA.gov is the U.S. government's official web portal to all federal, state and local government web resources and services.